createdAt,value
2022-12-25T00:01:28.394Z,20.55
2022-12-25T00:03:59.247Z,18.98
2022-12-25T00:06:30.667Z,19.85
2022-12-25T00:09:01.892Z,18.60
2022-12-25T00:11:34.601Z,18.52
2022-12-25T00:14:05.943Z,18.88
2022-12-25T00:16:36.219Z,18.55
2022-12-25T00:19:06.912Z,19.17
2022-12-25T00:21:36.277Z,17.98
2022-12-25T00:24:07.620Z,18.95
2022-12-25T00:26:41.736Z,18.75
2022-12-25T00:29:15.681Z,18.70
2022-12-25T00:31:46.764Z,15.95
2022-12-25T00:34:17.646Z,17.45
2022-12-25T00:36:51.780Z,17.08
2022-12-25T00:39:25.045Z,19.73
2022-12-25T00:42:14.594Z,21.00
2022-12-25T00:44:45.537Z,18.42
2022-12-25T00:47:18.512Z,17.90
2022-12-25T00:49:49.247Z,19.85
2022-12-25T00:52:24.363Z,18.35
2022-12-25T00:54:54.438Z,20.05
2022-12-25T00:57:25.971Z,21.13
2022-12-25T00:59:55.900Z,20.35
2022-12-25T01:02:25.836Z,20.90
2022-12-25T01:04:58.253Z,18.63
2022-12-25T01:07:40.922Z,18.15
2022-12-25T01:10:24.017Z,18.33
2022-12-25T01:12:55.541Z,17.40
2022-12-25T01:15:26.479Z,18.92
2022-12-25T01:17:58.790Z,17.95
2022-12-25T01:20:31.030Z,19.73
2022-12-25T01:23:02.083Z,18.33
2022-12-25T01:25:32.640Z,21.02
2022-12-25T01:28:03.617Z,19.30
2022-12-25T01:30:34.089Z,20.27
2022-12-25T01:33:03.780Z,20.65
2022-12-25T01:35:33.581Z,20.83
2022-12-25T01:38:06.285Z,20.27
2022-12-25T01:43:18.506Z,18.90
2022-12-25T01:45:49.505Z,18.67
2022-12-25T01:48:25.026Z,19.35
2022-12-25T01:51:00.135Z,18.83
2022-12-25T01:53:30.982Z,19.65
2022-12-25T01:56:06.153Z,20.40
2022-12-25T01:58:38.608Z,20.63
2022-12-25T02:01:10.255Z,18.83
2022-12-25T02:03:42.528Z,19.90
2022-12-25T02:06:13.365Z,22.35
2022-12-25T02:08:44.487Z,23.40
2022-12-25T02:11:34.803Z,19.23
2022-12-25T02:14:09.912Z,22.30
2022-12-25T02:16:56.554Z,20.92
2022-12-25T02:19:49.906Z,21.95
2022-12-25T02:22:36.174Z,20.35
2022-12-25T02:25:21.286Z,21.55
2022-12-25T02:28:08.137Z,20.90
2022-12-25T02:30:44.548Z,20.17
2022-12-25T02:33:35.353Z,21.80
2022-12-25T02:36:11.209Z,21.95
2022-12-25T02:39:04.419Z,22.63
2022-12-25T02:41:38.918Z,21.35
2022-12-25T02:44:36.129Z,19.73
2022-12-25T02:47:27.465Z,23.00
2022-12-25T02:50:16.899Z,22.25
2022-12-25T02:53:06.201Z,21.45
2022-12-25T02:56:02.089Z,21.60
2022-12-25T02:58:53.535Z,22.48
2022-12-25T03:01:47.618Z,22.23
2022-12-25T03:04:40.198Z,22.30
2022-12-25T03:07:13.575Z,22.73
2022-12-25T03:12:42.496Z,21.88
2022-12-25T03:15:31.821Z,24.90
2022-12-25T03:18:08.301Z,22.42
2022-12-25T03:20:57.153Z,24.83
2022-12-25T03:23:49.704Z,24.40
2022-12-25T03:26:38.587Z,23.43
2022-12-25T03:29:09.021Z,26.63
2022-12-25T03:31:47.899Z,24.83
2022-12-25T03:34:53.791Z,26.30
2022-12-25T03:38:01.501Z,23.00
2022-12-25T03:40:54.769Z,23.67
2022-12-25T03:43:49.432Z,24.67
2022-12-25T03:46:41.532Z,24.13
2022-12-25T03:49:36.609Z,24.33
2022-12-25T03:52:31.255Z,24.55
2022-12-25T03:55:23.855Z,23.08
2022-12-25T03:58:11.848Z,23.67
2022-12-25T04:00:59.952Z,23.15
2022-12-25T04:03:47.347Z,23.25
2022-12-25T04:06:34.873Z,22.70
2022-12-25T04:09:38.081Z,25.95
2022-12-25T04:12:34.724Z,23.02
2022-12-25T04:15:25.182Z,24.85
2022-12-25T04:18:12.916Z,24.63
2022-12-25T04:21:00.237Z,25.52
2022-12-25T04:23:49.742Z,24.63
2022-12-25T04:26:41.683Z,22.75
2022-12-25T04:29:29.219Z,23.98
2022-12-25T04:32:16.614Z,23.10
2022-12-25T04:35:04.947Z,23.10
2022-12-25T04:37:35.395Z,24.50
2022-12-25T04:40:06.295Z,23.08
2022-12-25T04:42:37.508Z,23.40
2022-12-25T04:45:08.726Z,22.80
2022-12-25T04:47:38.618Z,22.02
2022-12-25T04:50:10.885Z,20.25
2022-12-25T04:52:42.419Z,21.27
2022-12-25T04:55:12.871Z,22.23
2022-12-25T04:57:43.532Z,21.05
2022-12-25T05:00:16.681Z,22.20
2022-12-25T05:02:47.199Z,19.85
2022-12-25T05:05:19.497Z,22.45
2022-12-25T05:07:49.458Z,21.42
2022-12-25T05:10:19.328Z,19.40
2022-12-25T05:12:50.161Z,18.65
2022-12-25T05:15:20.572Z,21.13
2022-12-25T05:17:52.162Z,18.75
2022-12-25T05:20:22.663Z,19.15
2022-12-25T05:22:53.215Z,18.45
2022-12-25T05:25:23.122Z,21.00
2022-12-25T05:27:54.638Z,16.88
2022-12-25T05:30:24.183Z,18.58
2022-12-25T05:32:53.988Z,20.20
2022-12-25T05:35:24.496Z,17.60
2022-12-25T05:37:53.908Z,19.23
2022-12-25T05:40:24.083Z,17.23
2022-12-25T05:42:55.060Z,16.90
2022-12-25T05:45:25.275Z,18.85
2022-12-25T05:47:55.195Z,17.73
2022-12-25T05:50:25.760Z,18.55
2022-12-25T05:53:09.765Z,15.38
2022-12-25T05:55:43.622Z,16.60
2022-12-25T05:58:15.404Z,15.30
2022-12-25T06:00:45.523Z,16.23
2022-12-25T06:03:15.479Z,15.88
2022-12-25T06:05:45.592Z,15.27
2022-12-25T06:08:17.928Z,13.63
2022-12-25T06:10:48.443Z,13.50
2022-12-25T06:13:19.566Z,11.82
2022-12-25T06:15:49.715Z,11.32
2022-12-25T06:18:22.038Z,11.90
2022-12-25T06:20:55.119Z,12.40
2022-12-25T06:23:25.212Z,11.43
2022-12-25T06:25:54.974Z,11.10
2022-12-25T06:28:26.657Z,10.88
2022-12-25T06:30:56.540Z,10.63
2022-12-25T06:33:26.592Z,10.13
2022-12-25T06:35:59.475Z,12.75
2022-12-25T06:38:29.751Z,10.82
2022-12-25T06:41:06.123Z,12.82
2022-12-25T06:43:38.567Z,10.63
2022-12-25T06:46:10.944Z,12.40
2022-12-25T06:48:48.020Z,12.38
2022-12-25T06:51:17.505Z,13.60
2022-12-25T06:53:50.035Z,13.05
2022-12-25T06:56:21.271Z,12.60
2022-12-25T06:58:54.579Z,13.02
2022-12-25T07:03:57.595Z,13.95
2022-12-25T07:06:28.445Z,14.57
2022-12-25T07:08:58.431Z,14.23
2022-12-25T07:11:27.665Z,13.75
2022-12-25T07:14:00.931Z,14.60
2022-12-25T07:16:30.545Z,12.00
2022-12-25T07:19:04.102Z,13.68
2022-12-25T07:21:33.478Z,13.18
2022-12-25T07:24:03.719Z,14.98
2022-12-25T07:26:33.615Z,14.45
2022-12-25T07:29:04.542Z,14.48
2022-12-25T07:31:34.555Z,14.82
2022-12-25T07:34:05.010Z,13.52
2022-12-25T07:36:34.173Z,14.82
2022-12-25T07:39:05.211Z,13.48
2022-12-25T07:41:34.832Z,15.35
2022-12-25T07:44:18.410Z,14.90
2022-12-25T07:49:20.233Z,13.88
2022-12-25T07:51:50.233Z,13.80
2022-12-25T07:54:21.232Z,14.40
2022-12-25T07:56:53.777Z,14.50
2022-12-25T07:59:24.862Z,15.07
2022-12-25T08:01:55.146Z,14.65
2022-12-25T08:04:25.869Z,24.40
2022-12-25T08:06:58.226Z,31.85
2022-12-25T08:09:28.559Z,20.55
2022-12-25T08:12:00.967Z,14.80
2022-12-25T08:14:32.123Z,15.15
2022-12-25T08:17:02.842Z,14.80
2022-12-25T08:19:33.314Z,16.10
2022-12-25T08:22:03.572Z,15.43
2022-12-25T08:24:33.334Z,16.27
2022-12-25T08:27:03.387Z,16.30
2022-12-25T08:29:34.180Z,14.90
2022-12-25T08:32:04.520Z,14.65
2022-12-25T08:34:33.902Z,14.45
2022-12-25T08:37:03.676Z,12.85
2022-12-25T08:39:35.119Z,15.18
2022-12-25T08:42:05.228Z,14.95
2022-12-25T08:44:36.963Z,13.20
2022-12-25T08:47:06.959Z,13.70
2022-12-25T08:49:37.056Z,12.27
2022-12-25T08:52:07.932Z,13.60
2022-12-25T08:54:37.613Z,14.30
2022-12-25T08:57:07.943Z,11.95
2022-12-25T08:59:41.356Z,12.27
2022-12-25T09:02:12.397Z,11.38
2022-12-25T09:04:42.380Z,13.27
2022-12-25T09:07:13.157Z,12.93
2022-12-25T09:09:43.673Z,12.57
2022-12-25T09:12:13.793Z,10.82
2022-12-25T09:14:49.458Z,10.95
2022-12-25T09:17:19.973Z,10.63
2022-12-25T09:19:50.252Z,10.63
2022-12-25T09:22:20.785Z,11.18
2022-12-25T09:24:50.617Z,25.75
2022-12-25T09:27:21.220Z,18.35
2022-12-25T09:29:52.380Z,10.27
2022-12-25T09:32:22.454Z,9.82
2022-12-25T09:34:52.892Z,9.20
2022-12-25T09:37:22.803Z,8.50
2022-12-25T09:39:52.673Z,8.60
2022-12-25T09:42:25.555Z,8.95
2022-12-25T09:45:00.471Z,8.40
2022-12-25T09:47:33.401Z,8.57
2022-12-25T09:50:12.653Z,8.07
2022-12-25T09:52:46.952Z,8.63
2022-12-25T09:55:20.710Z,8.82
2022-12-25T09:57:53.411Z,9.20
2022-12-25T10:00:33.445Z,9.30
2022-12-25T10:03:20.571Z,8.50
2022-12-25T10:06:12.080Z,9.77
2022-12-25T10:08:57.749Z,9.25
2022-12-25T10:14:12.476Z,8.95
2022-12-25T10:16:53.235Z,9.40
2022-12-25T10:19:36.362Z,8.98
2022-12-25T10:22:24.527Z,10.07
2022-12-25T10:24:57.183Z,10.13
2022-12-25T10:27:33.504Z,9.63
2022-12-25T10:30:15.012Z,11.00
2022-12-25T10:32:47.169Z,8.43
2022-12-25T10:35:19.252Z,9.25
2022-12-25T10:38:01.682Z,8.32
2022-12-25T10:40:38.265Z,78.03
2022-12-25T10:43:13.531Z,42.58
2022-12-25T10:45:46.917Z,17.60
2022-12-25T10:48:22.779Z,10.38
2022-12-25T10:50:52.739Z,9.85
2022-12-25T10:53:24.484Z,9.50
2022-12-25T10:56:02.863Z,10.77
2022-12-25T10:58:34.012Z,10.68
2022-12-25T11:01:06.372Z,9.68
2022-12-25T11:03:40.076Z,10.45
2022-12-25T11:06:24.206Z,9.27
2022-12-25T11:08:57.743Z,10.80
2022-12-25T11:14:09.311Z,9.63
2022-12-25T11:16:48.071Z,11.10
2022-12-25T11:19:28.921Z,10.50
2022-12-25T11:22:00.237Z,12.25
2022-12-25T11:24:31.152Z,11.40
2022-12-25T11:27:03.280Z,10.27
2022-12-25T11:29:38.613Z,11.93
2022-12-25T11:32:21.895Z,10.80
2022-12-25T11:34:52.935Z,10.63
2022-12-25T11:37:28.689Z,10.68
2022-12-25T11:39:58.632Z,11.15
2022-12-25T11:42:34.169Z,11.77
2022-12-25T11:45:08.523Z,10.23
2022-12-25T11:47:42.487Z,10.10
2022-12-25T11:50:24.784Z,10.07
2022-12-25T11:52:56.168Z,12.07
2022-12-25T11:55:34.613Z,11.48
2022-12-25T11:58:15.790Z,10.30
2022-12-25T12:00:49.095Z,10.73
2022-12-25T12:03:27.048Z,13.27
2022-12-25T12:06:01.387Z,12.10
2022-12-25T12:08:34.086Z,12.68
2022-12-25T12:11:20.878Z,12.93
2022-12-25T12:14:05.274Z,10.95
2022-12-25T12:16:36.271Z,11.07
2022-12-25T12:19:13.776Z,11.43
2022-12-25T12:21:50.774Z,12.02
2022-12-25T12:24:22.830Z,12.30
2022-12-25T12:27:03.774Z,11.77
2022-12-25T12:29:44.662Z,12.30
2022-12-25T12:32:30.914Z,11.52
2022-12-25T12:35:01.301Z,12.77
2022-12-25T12:37:35.347Z,12.02
2022-12-25T12:40:09.136Z,12.38
2022-12-25T12:42:50.648Z,11.93
2022-12-25T12:45:25.357Z,11.65
2022-12-25T12:47:54.908Z,11.95
2022-12-25T12:50:36.730Z,14.07
2022-12-25T12:53:29.862Z,40.38
2022-12-25T12:56:14.952Z,11.90
2022-12-25T12:58:48.620Z,12.15
2022-12-25T13:01:40.213Z,11.77
2022-12-25T13:04:33.604Z,12.98
2022-12-25T13:07:12.268Z,12.10
2022-12-25T13:09:59.765Z,12.35
2022-12-25T13:12:29.576Z,13.05
2022-12-25T13:15:00.388Z,12.93
2022-12-25T13:17:30.920Z,12.88
2022-12-25T13:20:02.343Z,13.10
2022-12-25T13:22:35.818Z,11.85
2022-12-25T13:25:16.379Z,13.93
2022-12-25T13:30:25.881Z,10.63
2022-12-25T13:32:57.174Z,11.57
2022-12-25T13:35:26.667Z,11.32
2022-12-25T13:37:56.251Z,12.30
2022-12-25T13:40:28.669Z,13.90
2022-12-25T13:42:59.776Z,13.50
2022-12-25T13:45:31.270Z,14.13
2022-12-25T13:48:11.119Z,13.98
2022-12-25T13:50:46.806Z,13.13
2022-12-25T13:53:18.582Z,14.52
2022-12-25T13:55:54.547Z,16.95
2022-12-25T13:58:28.383Z,14.60
2022-12-25T14:00:59.885Z,15.27
2022-12-25T14:03:35.847Z,15.07
2022-12-25T14:06:07.524Z,14.45
2022-12-25T14:08:37.238Z,16.75
2022-12-25T14:11:08.961Z,14.82
2022-12-25T14:13:42.681Z,15.33
2022-12-25T14:16:12.724Z,16.58
2022-12-25T14:18:52.073Z,16.63
2022-12-25T14:21:29.686Z,16.92
2022-12-25T14:23:58.663Z,15.40
2022-12-25T14:26:31.113Z,14.38
2022-12-25T14:29:15.635Z,15.18
2022-12-25T14:31:48.485Z,15.38
2022-12-25T14:34:22.141Z,16.25
2022-12-25T14:39:34.927Z,16.50
2022-12-25T14:42:14.673Z,19.38
2022-12-25T14:44:43.631Z,17.58
2022-12-25T14:47:20.221Z,17.98
2022-12-25T14:49:49.746Z,16.80
2022-12-25T14:52:22.516Z,17.17
2022-12-25T14:54:54.280Z,17.25
2022-12-25T14:57:38.617Z,16.70
2022-12-25T15:00:10.341Z,15.07
2022-12-25T15:02:44.919Z,15.80
2022-12-25T15:05:38.520Z,16.05
2022-12-25T15:08:21.559Z,15.48
2022-12-25T15:11:01.755Z,15.48
2022-12-25T15:13:36.347Z,17.23
2022-12-25T15:16:10.355Z,16.88
2022-12-25T15:18:42.718Z,17.27
2022-12-25T15:21:18.402Z,18.50
2022-12-25T15:23:47.602Z,16.58
2022-12-25T15:26:17.323Z,17.40
2022-12-25T15:28:47.788Z,15.75
2022-12-25T15:31:22.320Z,16.33
2022-12-25T15:33:51.870Z,17.10
2022-12-25T15:36:21.073Z,15.73
2022-12-25T15:38:50.669Z,15.93
2022-12-25T15:41:35.584Z,15.52
2022-12-25T15:44:07.546Z,20.48
2022-12-25T15:46:41.671Z,35.20
2022-12-25T15:49:11.610Z,20.73
2022-12-25T15:51:40.796Z,21.27
2022-12-25T15:54:12.381Z,18.17
2022-12-25T15:56:46.144Z,17.25
2022-12-25T15:59:18.454Z,19.40
2022-12-25T16:01:51.431Z,17.73
2022-12-25T16:04:25.685Z,19.75
2022-12-25T16:06:55.687Z,19.85
2022-12-25T16:09:25.335Z,19.70
2022-12-25T16:11:56.806Z,20.30
2022-12-25T16:14:27.658Z,38.90
2022-12-25T16:16:57.002Z,52.97
2022-12-25T16:19:26.044Z,36.35
2022-12-25T16:21:54.981Z,26.42
2022-12-25T16:24:24.777Z,24.98
2022-12-25T16:26:53.585Z,23.13
2022-12-25T16:29:22.513Z,23.08
2022-12-25T16:31:52.810Z,26.00
2022-12-25T16:34:21.818Z,20.30
2022-12-25T16:36:50.610Z,26.92
2022-12-25T16:39:19.405Z,22.13
2022-12-25T16:41:48.397Z,22.42
2022-12-25T16:44:17.392Z,25.60
2022-12-25T16:46:46.253Z,30.70
2022-12-25T16:49:16.500Z,25.13
2022-12-25T16:51:45.867Z,27.27
2022-12-25T16:54:14.678Z,36.28
2022-12-25T16:56:43.656Z,22.27
2022-12-25T16:59:12.989Z,26.15
2022-12-25T17:01:45.472Z,108.47
2022-12-25T17:04:14.753Z,99.72
2022-12-25T17:06:44.999Z,35.03
2022-12-25T17:09:14.183Z,38.08
2022-12-25T17:11:43.101Z,24.95
2022-12-25T17:14:12.644Z,26.52
2022-12-25T17:16:41.994Z,23.75
2022-12-25T17:19:18.729Z,30.05
2022-12-25T17:21:49.406Z,28.40
2022-12-25T17:24:19.073Z,37.63
2022-12-25T17:26:48.509Z,39.78
2022-12-25T17:29:22.054Z,40.00
2022-12-25T17:31:52.835Z,58.10
2022-12-25T17:34:22.173Z,68.35
2022-12-25T17:36:54.362Z,57.08
2022-12-25T17:39:24.247Z,47.95
2022-12-25T17:41:55.867Z,36.83
2022-12-25T17:44:25.521Z,38.45
2022-12-25T17:46:54.678Z,34.15
2022-12-25T17:49:23.551Z,28.70
2022-12-25T17:51:54.991Z,30.77
2022-12-25T17:54:23.847Z,27.88
2022-12-25T17:56:52.657Z,29.40
2022-12-25T17:59:28.479Z,28.73
2022-12-25T18:01:57.689Z,26.80
2022-12-25T18:04:27.098Z,28.13
2022-12-25T18:06:57.373Z,32.13
2022-12-25T18:09:26.238Z,31.60
2022-12-25T18:11:55.209Z,32.17
2022-12-25T18:14:24.380Z,29.23
2022-12-25T18:16:55.660Z,27.48
2022-12-25T18:19:24.748Z,29.02
2022-12-25T18:21:53.636Z,32.20
2022-12-25T18:24:23.829Z,28.20
2022-12-25T18:26:52.710Z,39.20
2022-12-25T18:29:22.429Z,34.03
2022-12-25T18:31:51.528Z,30.15
2022-12-25T18:34:21.346Z,36.78
2022-12-25T18:36:50.372Z,28.90
2022-12-25T18:39:19.257Z,29.90
2022-12-25T18:42:07.856Z,39.90
2022-12-25T18:44:36.913Z,28.98
2022-12-25T18:47:05.745Z,60.33
2022-12-25T18:49:36.945Z,30.45
2022-12-25T18:52:48.781Z,36.40
2022-12-25T18:54:57.262Z,91.88
2022-12-25T18:57:27.873Z,45.72
2022-12-25T18:59:56.728Z,38.40
2022-12-25T19:02:25.673Z,35.92
2022-12-25T19:04:57.638Z,36.58
2022-12-25T19:07:26.730Z,33.05
2022-12-25T19:10:07.129Z,82.35
2022-12-25T19:12:38.432Z,26.23
2022-12-25T19:15:08.660Z,25.42
2022-12-25T19:17:37.576Z,26.65
2022-12-25T19:20:09.852Z,28.90
2022-12-25T19:22:38.997Z,28.17
2022-12-25T19:25:09.181Z,27.77
2022-12-25T19:27:39.814Z,37.40
2022-12-25T19:30:11.462Z,33.40
2022-12-25T19:32:41.128Z,45.30
2022-12-25T19:35:10.507Z,35.17
2022-12-25T19:37:39.570Z,51.35
2022-12-25T19:40:09.946Z,41.33
2022-12-25T19:42:42.552Z,39.22
2022-12-25T19:45:11.825Z,37.53
2022-12-25T19:47:44.504Z,41.72
2022-12-25T19:50:13.369Z,38.47
2022-12-25T19:52:42.210Z,42.22
2022-12-25T19:55:11.157Z,52.38
2022-12-25T19:57:42.790Z,42.33
2022-12-25T20:00:12.416Z,57.88
2022-12-25T20:02:45.862Z,101.88
2022-12-25T20:05:15.333Z,100.22
2022-12-25T20:07:44.463Z,80.57
2022-12-25T20:10:14.189Z,57.90
2022-12-25T20:12:44.574Z,65.20
2022-12-25T20:15:13.875Z,38.35
2022-12-25T20:17:43.229Z,34.78
2022-12-25T20:20:16.635Z,39.70
2022-12-25T20:22:48.195Z,40.17
2022-12-25T20:25:17.364Z,39.47
2022-12-25T20:27:47.751Z,33.20
2022-12-25T20:30:18.551Z,36.22
2022-12-25T20:32:50.765Z,56.35
2022-12-25T20:35:20.436Z,35.88
2022-12-25T20:37:49.432Z,29.83
2022-12-25T20:40:19.291Z,36.72
2022-12-25T20:42:49.991Z,35.17
2022-12-25T20:45:19.481Z,35.88
2022-12-25T20:47:49.363Z,36.05
2022-12-25T20:50:21.235Z,34.50
2022-12-25T20:52:53.857Z,33.30
2022-12-25T20:55:23.812Z,32.88
2022-12-25T20:57:54.586Z,33.95
2022-12-25T21:00:24.673Z,36.58
2022-12-25T21:02:53.779Z,124.85
2022-12-25T21:05:26.059Z,49.63
2022-12-25T21:07:55.600Z,62.95
2022-12-25T21:10:27.159Z,36.28
2022-12-25T21:13:00.690Z,34.83
2022-12-25T21:15:30.682Z,36.80
2022-12-25T21:18:02.410Z,33.38
2022-12-25T21:20:31.612Z,34.75
2022-12-25T21:23:00.650Z,34.30
2022-12-25T21:25:33.026Z,33.58
2022-12-25T21:28:03.650Z,32.72
2022-12-25T21:30:33.673Z,33.40
2022-12-25T21:33:20.945Z,31.75
2022-12-25T21:35:51.245Z,34.35
2022-12-25T21:38:24.776Z,31.75
2022-12-25T21:41:03.484Z,32.03
2022-12-25T21:43:34.821Z,32.63
2022-12-25T21:46:05.710Z,32.72
2022-12-25T21:48:37.722Z,39.53
2022-12-25T21:51:26.579Z,82.45
2022-12-25T21:53:56.379Z,57.97
2022-12-25T21:56:26.949Z,60.90
2022-12-25T21:59:00.250Z,110.72
2022-12-25T22:01:30.092Z,38.63
2022-12-25T22:04:04.427Z,33.38
2022-12-25T22:06:52.374Z,32.70
2022-12-25T22:09:23.196Z,33.65
2022-12-25T22:12:10.168Z,35.30
2022-12-25T22:14:55.305Z,43.75
2022-12-25T22:17:44.890Z,36.83
2022-12-25T22:20:17.559Z,33.75
2022-12-25T22:22:47.481Z,33.33
2022-12-25T22:25:18.123Z,31.67
2022-12-25T22:27:48.863Z,36.13
2022-12-25T22:30:21.670Z,27.73
2022-12-25T22:32:52.651Z,27.45
2022-12-25T22:35:23.007Z,26.95
2022-12-25T22:37:54.280Z,26.65
2022-12-25T22:40:24.539Z,26.80
2022-12-25T22:42:55.496Z,26.88
2022-12-25T22:45:26.628Z,25.92
2022-12-25T22:47:56.744Z,27.42
2022-12-25T22:50:26.832Z,27.15
2022-12-25T22:52:56.577Z,27.55
2022-12-25T22:55:26.270Z,25.13
2022-12-25T22:57:56.559Z,26.45
2022-12-25T23:00:27.715Z,26.20
2022-12-25T23:02:57.606Z,26.40
2022-12-25T23:05:27.449Z,23.02
2022-12-25T23:07:57.464Z,24.40
2022-12-25T23:10:27.242Z,23.40
2022-12-25T23:13:14.445Z,22.25
2022-12-25T23:15:48.338Z,21.90
2022-12-25T23:18:35.162Z,21.00
2022-12-25T23:21:23.418Z,18.70
2022-12-25T23:24:10.722Z,20.80
2022-12-25T23:26:40.971Z,20.85
2022-12-25T23:29:28.384Z,20.75
2022-12-25T23:32:00.287Z,19.35
2022-12-25T23:34:30.151Z,21.42
2022-12-25T23:37:00.413Z,19.15
2022-12-25T23:39:30.285Z,20.33
2022-12-25T23:42:03.015Z,21.40
2022-12-25T23:44:32.374Z,20.58
2022-12-25T23:47:05.942Z,21.70
2022-12-25T23:49:36.383Z,22.77
2022-12-25T23:52:09.012Z,21.42
2022-12-25T23:54:39.424Z,22.10
2022-12-25T23:57:09.740Z,20.65
2022-12-25T23:59:39.427Z,21.92
